Time;durP1;ratioP1;P1;durP2;ratioP2;P2;SDS_P1;SDS_P2;PMS_P1;PMS_P2;Temp;Humidity;BMP_temperature;BMP_pressure;BME280_temperature;BME280_humidity;BME280_pressure;Samples;Min_cycle;Max_cycle;Signal;HPM_P1;HPM_P2
2022/11/29 00:01:50;;;;;;;27.57;20.93;;;8.30;99.90;;;;;;5084329;28;20742;-61
2022/11/29 00:04:19;;;;;;;27.87;19.97;;;8.20;99.90;;;;;;5084821;28;20464;-61
2022/11/29 00:06:48;;;;;;;26.87;19.37;;;8.20;99.90;;;;;;5083021;28;20922;-60
2022/11/29 00:09:18;;;;;;;27.00;20.17;;;8.20;99.90;;;;;;5085951;28;20457;-61
2022/11/29 00:14:30;;;;;;;30.27;18.73;;;8.30;99.90;;;;;;5101106;28;20608;-60
2022/11/29 00:17:00;;;;;;;27.17;19.60;;;8.20;99.90;;;;;;5098547;28;20555;-61
2022/11/29 00:19:28;;;;;;;31.80;19.30;;;8.20;99.90;;;;;;5077450;28;20443;-60
2022/11/29 00:21:59;;;;;;;25.17;19.83;;;8.20;99.90;;;;;;5074220;28;20930;-60
2022/11/29 00:24:26;;;;;;;28.53;19.40;;;8.30;99.90;;;;;;5080227;28;20467;-60
2022/11/29 00:26:53;;;;;;;28.97;20.67;;;8.30;99.90;;;;;;5079050;28;20482;-60
2022/11/29 00:29:21;;;;;;;32.70;20.33;;;8.30;99.90;;;;;;5060720;28;20462;-60
2022/11/29 00:31:49;;;;;;;31.93;20.67;;;8.30;99.90;;;;;;5061853;28;20470;-60
2022/11/29 00:34:16;;;;;;;28.00;21.17;;;8.20;99.90;;;;;;5060069;28;20472;-60
2022/11/29 00:36:44;;;;;;;31.77;22.13;;;8.30;99.90;;;;;;5059612;28;20432;-60
2022/11/29 00:39:12;;;;;;;32.13;21.23;;;8.30;99.90;;;;;;5060686;28;20437;-60
2022/11/29 00:41:40;;;;;;;38.60;22.13;;;8.20;99.90;;;;;;5062651;28;20744;-59
2022/11/29 00:44:07;;;;;;;33.00;22.63;;;8.20;99.90;;;;;;5078544;28;20461;-58
2022/11/29 00:46:37;;;;;;;32.90;20.87;;;8.20;99.90;;;;;;5079768;28;20489;-58
2022/11/29 00:49:10;;;;;;;31.83;21.83;;;8.30;99.90;;;;;;5060522;28;20469;-60
2022/11/29 00:51:37;;;;;;;37.77;21.83;;;8.20;99.90;;;;;;5058568;28;20458;-59
2022/11/29 00:54:06;;;;;;;33.50;22.40;;;8.30;99.90;;;;;;5077710;28;20443;-59
2022/11/29 00:56:35;;;;;;;34.90;23.60;;;8.20;99.90;;;;;;5077608;28;20516;-58
2022/11/29 00:59:02;;;;;;;35.90;23.10;;;8.20;99.90;;;;;;5079728;28;20461;-59
2022/11/29 01:01:29;;;;;;;42.60;24.33;;;8.30;99.90;;;;;;5079049;28;20464;-59
2022/11/29 01:03:57;;;;;;;35.47;23.83;;;8.30;99.90;;;;;;5078255;28;20491;-59
2022/11/29 01:06:26;;;;;;;42.43;24.73;;;8.20;99.90;;;;;;5077694;28;20457;-58
2022/11/29 01:08:53;;;;;;;42.60;23.20;;;8.20;99.90;;;;;;5079968;28;20487;-58
2022/11/29 01:11:23;;;;;;;52.17;27.60;;;8.20;99.90;;;;;;5080099;28;20489;-58
2022/11/29 01:13:56;;;;;;;46.03;24.60;;;8.20;99.90;;;;;;5069487;28;20761;-58
2022/11/29 01:16:25;;;;;;;52.50;26.70;;;8.30;99.90;;;;;;5060607;28;20468;-59
2022/11/29 01:18:52;;;;;;;50.63;27.93;;;8.30;99.90;;;;;;5059889;28;20458;-58
2022/11/29 01:21:21;;;;;;;45.43;27.27;;;8.30;99.90;;;;;;5059185;28;20437;-59
2022/11/29 01:23:51;;;;;;;53.50;29.37;;;8.30;99.90;;;;;;5064903;28;20466;-59
2022/11/29 01:26:20;;;;;;;54.23;28.53;;;8.30;99.90;;;;;;5079264;28;20534;-59
2022/11/29 01:28:49;;;;;;;50.30;27.13;;;8.30;99.90;;;;;;5078002;28;20431;-57
2022/11/29 01:31:23;;;;;;;62.40;28.10;;;8.20;99.90;;;;;;5078229;28;20461;-57
2022/11/29 01:33:54;;;;;;;49.97;27.53;;;8.20;99.90;;;;;;5077114;28;20442;-58
2022/11/29 01:36:23;;;;;;;49.73;28.37;;;8.30;99.90;;;;;;5059129;28;20441;-59
2022/11/29 01:38:53;;;;;;;55.70;27.47;;;8.20;99.90;;;;;;5059640;28;20463;-60
2022/11/29 01:41:24;;;;;;;47.10;29.43;;;8.20;99.90;;;;;;5058935;28;20498;-60
2022/11/29 01:43:56;;;;;;;56.90;26.70;;;8.20;99.90;;;;;;5067390;28;20527;-60
2022/11/29 01:46:29;;;;;;;70.53;28.33;;;8.20;99.90;;;;;;5079495;28;20463;-61
2022/11/29 01:49:02;;;;;;;60.03;26.97;;;8.30;99.90;;;;;;5077615;28;20461;-61
2022/11/29 01:51:37;;;;;;;40.90;24.50;;;8.20;99.90;;;;;;5079165;28;20514;-61
2022/11/29 01:54:05;;;;;;;47.53;25.23;;;8.20;99.90;;;;;;5071961;28;20462;-61
2022/11/29 01:56:34;;;;;;;47.33;26.07;;;8.20;99.90;;;;;;5059257;28;20468;-61
2022/11/29 01:59:07;;;;;;;44.70;24.87;;;8.20;99.90;;;;;;5060244;28;20475;-60
2022/11/29 02:01:37;;;;;;;41.23;23.83;;;8.20;99.90;;;;;;5058660;28;20437;-61
2022/11/29 02:04:06;;;;;;;48.83;25.97;;;8.20;99.90;;;;;;5069690;28;20497;-61
2022/11/29 02:06:34;;;;;;;42.33;27.77;;;8.20;99.90;;;;;;5078515;28;20917;-61
2022/11/29 02:09:05;;;;;;;59.93;26.00;;;8.20;99.90;;;;;;5079134;28;20432;-62
2022/11/29 02:12:01;;;;;;;45.13;24.43;;;8.20;99.90;;;;;;5077975;28;20488;-62
2022/11/29 02:14:52;;;;;;;40.63;23.40;;;8.30;99.90;;;;;;5075404;28;20501;-62
2022/11/29 02:17:30;;;;;;;48.93;24.70;;;8.20;99.90;;;;;;5058989;28;20454;-62
2022/11/29 02:20:33;;;;;;;47.50;24.70;;;8.20;99.90;;;;;;5059386;28;20531;-62
2022/11/29 02:23:13;;;;;;;42.87;25.07;;;8.20;99.90;;;;;;5058689;28;20473;-63
2022/11/29 02:25:54;;;;;;;38.53;25.20;;;8.20;99.90;;;;;;5065980;28;20441;-63
2022/11/29 02:29:03;;;;;;;37.73;23.20;;;8.20;99.90;;;;;;5078359;28;20515;-62
2022/11/29 02:32:18;;;;;;;35.57;21.80;;;8.20;99.90;;;;;;5066852;28;20749;-63
2022/11/29 02:34:58;;;;;;;38.03;23.07;;;8.20;99.90;;;;;;5057502;28;20450;-62
2022/11/29 02:38:03;;;;;;;39.43;23.60;;;8.20;99.90;;;;;;5059496;28;20450;-61
2022/11/29 02:40:59;;;;;;;37.60;23.17;;;8.20;99.90;;;;;;5037143;28;20766;-61
2022/11/29 02:43:39;;;;;;;34.90;22.90;;;8.20;99.90;;;;;;5057822;28;20462;-61
2022/11/29 02:46:17;;;;;;;35.93;23.30;;;8.20;99.90;;;;;;5061340;28;20523;-59
2022/11/29 02:48:57;;;;;;;35.80;23.70;;;8.30;99.90;;;;;;5078028;28;20489;-58
2022/11/29 02:51:31;;;;;;;40.77;24.27;;;8.20;99.90;;;;;;5076112;28;20773;-61
2022/11/29 02:54:06;;;;;;;44.20;24.33;;;8.30;99.90;;;;;;5077766;28;20461;-60
2022/11/29 02:56:40;;;;;;;46.93;25.40;;;8.20;99.90;;;;;;5073453;28;20476;-59
2022/11/29 02:59:15;;;;;;;51.30;26.40;;;8.20;99.90;;;;;;5058245;28;20465;-61
2022/11/29 03:01:51;;;;;;;43.47;25.40;;;8.20;99.90;;;;;;5057485;28;20472;-61
2022/11/29 03:04:32;;;;;;;46.47;24.87;;;8.20;99.90;;;;;;5057244;28;20867;-60
2022/11/29 03:07:07;;;;;;;41.60;22.87;;;8.20;99.90;;;;;;5061065;28;20461;-61
2022/11/29 03:09:39;;;;;;;39.30;22.97;;;8.20;99.90;;;;;;5077239;28;20457;-61
2022/11/29 03:12:18;;;;;;;40.20;22.80;;;8.20;99.90;;;;;;5075906;28;20457;-61
2022/11/29 03:14:56;;;;;;;37.13;24.07;;;8.30;99.90;;;;;;5077107;28;20461;-61
2022/11/29 03:17:37;;;;;;;31.97;21.67;;;8.20;99.90;;;;;;5072776;28;20458;-62
2022/11/29 03:20:17;;;;;;;39.80;22.97;;;8.20;99.90;;;;;;5057075;28;20554;-62
2022/11/29 03:23:01;;;;;;;33.67;22.67;;;8.20;99.90;;;;;;5056962;28;20556;-63
2022/11/29 03:25:35;;;;;;;37.97;23.40;;;8.20;99.90;;;;;;5055994;28;20924;-63
2022/11/29 03:28:08;;;;;;;31.67;21.87;;;8.30;99.90;;;;;;5062472;28;20485;-63
2022/11/29 03:30:40;;;;;;;30.13;21.60;;;8.20;99.90;;;;;;5075108;28;20461;-63
2022/11/29 03:33:13;;;;;;;32.30;19.90;;;8.20;99.90;;;;;;5077714;28;20467;-63
2022/11/29 03:35:46;;;;;;;30.50;20.67;;;8.20;99.90;;;;;;5077227;28;20530;-62
2022/11/29 03:38:21;;;;;;;28.33;19.30;;;8.20;99.90;;;;;;5073497;28;20439;-62
2022/11/29 03:40:55;;;;;;;28.90;19.10;;;8.30;99.90;;;;;;5057916;28;20441;-62
2022/11/29 03:43:27;;;;;;;27.30;19.93;;;8.30;99.90;;;;;;5057014;28;20469;-62
2022/11/29 03:46:02;;;;;;;27.30;18.43;;;8.30;99.90;;;;;;5056909;28;20465;-61
2022/11/29 03:48:33;;;;;;;25.90;18.67;;;8.20;99.90;;;;;;5075595;28;20599;-61
2022/11/29 03:51:07;;;;;;;30.07;19.40;;;8.30;99.90;;;;;;5076648;28;20819;-61
2022/11/29 03:53:48;;;;;;;29.80;19.67;;;8.30;99.90;;;;;;5074556;28;20465;-61
2022/11/29 03:56:29;;;;;;;27.43;19.73;;;8.30;99.90;;;;;;5077025;28;20555;-61
2022/11/29 03:59:10;;;;;;;30.43;19.30;;;8.30;99.90;;;;;;5075402;28;20461;-61
2022/11/29 04:02:19;;;;;;;30.67;18.67;;;8.30;99.90;;;;;;5057655;28;20462;-61
2022/11/29 04:05:20;;;;;;;27.50;17.87;;;8.30;99.90;;;;;;5056683;28;20800;-61
2022/11/29 04:08:27;;;;;;;26.77;17.60;;;8.30;99.90;;;;;;5055735;28;20795;-61
2022/11/29 04:11:36;;;;;;;30.87;17.00;;;8.30;99.90;;;;;;5070070;28;20436;-61
2022/11/29 04:14:31;;;;;;;29.40;16.00;;;8.30;99.90;;;;;;5075867;28;20492;-61
2022/11/29 04:17:28;;;;;;;22.10;15.43;;;8.30;99.90;;;;;;5076162;28;20472;-61
2022/11/29 04:20:22;;;;;;;28.67;16.47;;;8.30;99.90;;;;;;5073532;28;20464;-61
2022/11/29 04:23:24;;;;;;;29.20;15.50;;;8.30;99.90;;;;;;5057887;28;20462;-61
2022/11/29 04:26:32;;;;;;;25.50;16.00;;;8.30;99.90;;;;;;5053127;28;20506;-61
2022/11/29 04:29:20;;;;;;;26.20;16.53;;;8.30;99.90;;;;;;5049985;28;20499;-61
2022/11/29 04:32:11;;;;;;;27.60;15.27;;;8.30;99.90;;;;;;5070851;28;20468;-60
2022/11/29 04:34:58;;;;;;;25.80;16.50;;;8.30;99.90;;;;;;5058693;28;20470;-60
2022/11/29 04:38:06;;;;;;;24.30;14.80;;;8.30;99.90;;;;;;5076578;28;20548;-60
2022/11/29 04:40:51;;;;;;;25.97;15.57;;;8.40;99.90;;;;;;5076770;28;20465;-61
2022/11/29 04:43:46;;;;;;;24.73;13.53;;;8.30;99.90;;;;;;5058860;28;20472;-60
2022/11/29 04:46:40;;;;;;;20.03;13.37;;;8.30;99.90;;;;;;5057192;28;20458;-61
2022/11/29 04:49:37;;;;;;;22.90;14.97;;;8.40;99.90;;;;;;5056657;28;20585;-61
2022/11/29 04:52:25;;;;;;;20.67;13.83;;;8.30;99.90;;;;;;5058539;28;20458;-61
2022/11/29 04:55:03;;;;;;;19.17;11.37;;;8.40;99.90;;;;;;5075013;28;20928;-61
2022/11/29 04:57:39;;;;;;;21.13;12.53;;;8.40;99.90;;;;;;5080483;28;20753;-61
2022/11/29 05:00:09;;;;;;;15.07;10.73;;;8.30;99.90;;;;;;5080532;28;20467;-61
2022/11/29 05:02:48;;;;;;;18.50;11.20;;;8.30;99.90;;;;;;5083276;28;20548;-61
2022/11/29 05:05:30;;;;;;;14.40;9.60;;;8.30;99.90;;;;;;5080029;28;20491;-61
2022/11/29 05:08:19;;;;;;;12.17;9.20;;;8.30;99.90;;;;;;5078089;28;20485;-60
2022/11/29 05:10:52;;;;;;;13.40;9.03;;;8.30;99.90;;;;;;5080031;28;20436;-60
2022/11/29 05:13:29;;;;;;;14.87;9.13;;;8.30;99.90;;;;;;5076002;28;20537;-60
2022/11/29 05:16:23;;;;;;;19.40;8.50;;;8.30;99.90;;;;;;5083792;28;20906;-61
2022/11/29 05:19:26;;;;;;;13.10;7.90;;;8.20;99.90;;;;;;5087946;28;20448;-60
2022/11/29 05:22:07;;;;;;;12.83;7.80;;;8.20;99.90;;;;;;5007137;28;20456;-61
2022/11/29 05:24:51;;;;;;;12.17;7.77;;;8.20;99.90;;;;;;5086780;28;20468;-62
2022/11/29 05:27:26;;;;;;;13.00;8.77;;;8.20;99.90;;;;;;5084604;28;20476;-61
2022/11/29 05:29:59;;;;;;;14.93;9.77;;;8.20;99.90;;;;;;5086359;28;20452;-61
2022/11/29 05:32:33;;;;;;;16.57;10.37;;;8.20;99.90;;;;;;5079938;28;20458;-61
2022/11/29 05:35:40;;;;;;;15.87;9.07;;;8.20;99.90;;;;;;5083722;28;20456;-61
2022/11/29 05:38:24;;;;;;;14.40;8.80;;;8.20;99.90;;;;;;5082709;28;20902;-61
2022/11/29 05:41:05;;;;;;;16.17;10.57;;;8.20;99.90;;;;;;5087613;28;20506;-61
2022/11/29 05:43:50;;;;;;;19.13;12.20;;;8.20;99.90;;;;;;5087816;28;20463;-61
2022/11/29 05:46:26;;;;;;;22.33;11.00;;;8.10;99.90;;;;;;5086137;28;20474;-61
2022/11/29 05:49:02;;;;;;;21.70;11.60;;;8.10;99.90;;;;;;5088567;28;20455;-61
2022/11/29 05:51:40;;;;;;;20.90;12.77;;;8.20;99.90;;;;;;5086530;28;20461;-61
2022/11/29 05:54:19;;;;;;;27.70;13.87;;;8.20;99.90;;;;;;5085510;28;20456;-61
2022/11/29 05:56:59;;;;;;;35.43;15.50;;;8.10;99.90;;;;;;5084178;28;20502;-60
2022/11/29 05:59:28;;;;;;;36.60;16.23;;;8.00;99.90;;;;;;5085222;28;20561;-62
2022/11/29 06:02:05;;;;;;;39.40;16.40;;;8.00;99.90;;;;;;5084155;28;20904;-61
2022/11/29 06:04:41;;;;;;;41.40;18.10;;;8.00;99.90;;;;;;5096325;28;20476;-62
2022/11/29 06:07:14;;;;;;;44.03;19.60;;;8.00;99.90;;;;;;5078099;28;20544;-62
2022/11/29 06:09:48;;;;;;;49.97;17.87;;;8.00;99.90;;;;;;5086540;28;20484;-62
2022/11/29 06:12:22;;;;;;;31.77;17.07;;;8.00;99.90;;;;;;5078903;28;20465;-61
2022/11/29 06:15:07;;;;;;;38.07;20.53;;;8.00;99.90;;;;;;5069791;28;20891;-62
2022/11/29 06:17:47;;;;;;;35.80;18.03;;;8.00;99.90;;;;;;5068004;28;20454;-62
2022/11/29 06:20:42;;;;;;;38.87;19.67;;;8.00;99.90;;;;;;5068784;28;20887;-61
2022/11/29 06:23:58;;;;;;;42.93;20.63;;;7.90;99.90;;;;;;5064938;28;20467;-62
2022/11/29 06:26:44;;;;;;;45.67;25.20;;;7.90;99.90;;;;;;4988822;28;20457;-62
2022/11/29 06:29:25;;;;;;;58.90;35.33;;;7.90;99.90;;;;;;4984534;28;20486;-61
2022/11/29 06:32:02;;;;;;;48.20;25.60;;;7.90;99.90;;;;;;5044361;28;20458;-62
2022/11/29 06:34:40;;;;;;;52.97;24.63;;;7.90;99.90;;;;;;5065918;28;20734;-61
2022/11/29 06:37:16;;;;;;;54.30;22.00;;;8.00;99.90;;;;;;5073046;28;20484;-61
2022/11/29 06:39:44;;;;;;;44.53;21.97;;;7.90;99.90;;;;;;5086957;28;20825;-61
2022/11/29 06:42:13;;;;;;;50.47;23.60;;;7.80;99.90;;;;;;5077053;28;20913;-64
2022/11/29 06:44:41;;;;;;;43.27;21.40;;;7.80;99.90;;;;;;5097051;28;20457;-64
2022/11/29 06:47:17;;;;;;;57.10;23.97;;;7.80;99.90;;;;;;5069915;28;20441;-64
2022/11/29 06:49:49;;;;;;;46.37;21.17;;;7.80;99.90;;;;;;5058062;28;20494;-64
2022/11/29 06:52:25;;;;;;;42.13;23.10;;;7.80;99.90;;;;;;5063402;28;20443;-64
2022/11/29 06:55:06;;;;;;;43.10;22.20;;;7.80;99.90;;;;;;5097858;28;20470;-64
2022/11/29 06:57:58;;;;;;;43.17;23.23;;;8.10;99.90;;;;;;5070202;28;20467;-64
2022/11/29 07:00:33;;;;;;;41.90;22.00;;;8.10;99.90;;;;;;5057809;28;20462;-63
2022/11/29 07:03:26;;;;;;;43.20;21.30;;;7.90;99.90;;;;;;5065484;28;20462;-64
2022/11/29 07:05:53;;;;;;;44.70;22.90;;;7.80;99.90;;;;;;5076051;28;20514;-64
2022/11/29 07:08:24;;;;;;;45.83;24.23;;;7.80;99.90;;;;;;5089590;28;20484;-64
2022/11/29 07:10:54;;;;;;;41.73;22.43;;;7.70;99.90;;;;;;5093464;28;20775;-64
2022/11/29 07:13:24;;;;;;;49.50;23.80;;;7.70;99.90;;;;;;5077273;28;20552;-64
2022/11/29 07:16:03;;;;;;;46.63;23.10;;;7.70;99.90;;;;;;5077712;28;20465;-64
2022/11/29 07:18:40;;;;;;;48.50;21.90;;;7.60;99.90;;;;;;5075291;28;20457;-63
2022/11/29 07:21:22;;;;;;;50.43;23.47;;;7.70;99.90;;;;;;5077691;28;20465;-64
2022/11/29 07:24:04;;;;;;;43.63;25.30;;;7.70;99.90;;;;;;5068718;28;20458;-64
2022/11/29 07:26:41;;;;;;;42.83;23.00;;;7.70;99.90;;;;;;5057666;28;20472;-64
2022/11/29 07:29:30;;;;;;;36.43;21.07;;;7.70;99.90;;;;;;5077073;28;20513;-63
2022/11/29 07:32:08;;;;;;;53.63;26.40;;;7.70;99.90;;;;;;5076932;28;20724;-63
2022/11/29 07:34:43;;;;;;;43.93;24.13;;;7.60;99.90;;;;;;5076863;28;20483;-63
2022/11/29 07:37:20;;;;;;;47.53;25.07;;;7.70;99.90;;;;;;5075786;28;20465;-64
2022/11/29 07:39:57;;;;;;;48.50;25.47;;;7.70;99.90;;;;;;5076879;28;20591;-63
2022/11/29 07:42:34;;;;;;;49.53;27.30;;;7.70;99.90;;;;;;5077152;28;20469;-63
2022/11/29 07:45:12;;;;;;;46.30;25.33;;;7.60;99.90;;;;;;5065724;28;20443;-63
2022/11/29 07:47:39;;;;;;;48.13;25.13;;;7.60;99.90;;;;;;5056477;28;20534;-63
2022/11/29 07:50:07;;;;;;;47.47;25.70;;;7.60;99.90;;;;;;5057855;28;20847;-63
2022/11/29 07:52:35;;;;;;;48.57;27.97;;;7.70;99.90;;;;;;5057029;28;20501;-63
2022/11/29 07:55:04;;;;;;;52.03;27.13;;;7.70;99.90;;;;;;5063062;28;20884;-63
2022/11/29 07:57:31;;;;;;;54.63;27.93;;;7.70;99.90;;;;;;5076784;28;20730;-63
2022/11/29 07:59:58;;;;;;;56.53;29.37;;;7.70;99.90;;;;;;5075968;28;20432;-63
2022/11/29 08:02:33;;;;;;;50.57;26.70;;;7.70;99.90;;;;;;5076941;28;20977;-64
2022/11/29 08:05:01;;;;;;;36.60;22.53;;;7.70;99.90;;;;;;5073427;28;20494;-63
2022/11/29 08:07:28;;;;;;;46.23;22.50;;;7.80;99.90;;;;;;5069391;28;20458;-63
2022/11/29 08:09:55;;;;;;;44.50;23.33;;;7.80;99.90;;;;;;5071004;28;20500;-63
2022/11/29 08:12:22;;;;;;;45.53;24.83;;;7.80;99.90;;;;;;5076998;28;20440;-63
2022/11/29 08:14:50;;;;;;;44.43;23.60;;;7.80;99.90;;;;;;5077081;28;20527;-63
2022/11/29 08:17:19;;;;;;;40.47;22.37;;;7.80;99.90;;;;;;5075542;28;20444;-63
2022/11/29 08:19:48;;;;;;;47.77;25.03;;;7.90;99.90;;;;;;5076468;28;20495;-63
2022/11/29 08:22:17;;;;;;;43.87;23.20;;;7.80;99.90;;;;;;5076526;28;20466;-63
2022/11/29 08:24:44;;;;;;;44.00;21.17;;;7.80;99.90;;;;;;5077029;28;20465;-63
2022/11/29 08:27:11;;;;;;;41.30;22.00;;;7.80;99.90;;;;;;5060712;28;20462;-63
2022/11/29 08:29:44;;;;;;;44.03;23.00;;;7.80;99.90;;;;;;5055030;28;20465;-63
2022/11/29 08:32:11;;;;;;;42.27;22.50;;;7.70;99.90;;;;;;5077721;28;20477;-63
2022/11/29 08:34:38;;;;;;;42.33;21.47;;;7.70;99.90;;;;;;5080131;28;20469;-63
2022/11/29 08:37:12;;;;;;;44.73;21.80;;;7.70;99.90;;;;;;5071539;28;20843;-63
2022/11/29 08:39:40;;;;;;;43.23;21.13;;;7.80;99.90;;;;;;5059913;28;20457;-63
2022/11/29 08:42:07;;;;;;;44.63;20.93;;;7.90;99.90;;;;;;5061289;28;20866;-63
2022/11/29 08:44:35;;;;;;;39.87;21.43;;;7.90;99.90;;;;;;5060514;28;20462;-63
2022/11/29 08:50:01;;;;;;;40.83;22.90;;;7.90;99.90;;;;;;5079556;28;20451;-63
2022/11/29 08:55:19;;;;;;;39.40;22.13;;;8.10;99.90;;;;;;5092657;28;20695;-63
2022/11/29 08:57:46;;;;;;;41.60;22.13;;;8.10;99.90;;;;;;5081832;28;20431;-63
2022/11/29 09:00:15;;;;;;;41.40;21.20;;;8.20;99.90;;;;;;5078220;28;20815;-63
2022/11/29 09:02:42;;;;;;;39.23;22.90;;;8.20;99.90;;;;;;5086634;28;20980;-63
2022/11/29 09:05:12;;;;;;;46.73;23.40;;;8.30;99.90;;;;;;5075868;28;20481;-62
2022/11/29 09:07:41;;;;;;;39.13;22.37;;;8.20;99.90;;;;;;5058363;28;20816;-63
2022/11/29 09:10:10;;;;;;;43.67;23.30;;;8.10;99.90;;;;;;5059087;28;20538;-62
2022/11/29 09:12:37;;;;;;;41.57;23.70;;;8.10;99.90;;;;;;5074101;28;20548;-62
2022/11/29 09:15:07;;;;;;;47.00;24.33;;;8.20;99.90;;;;;;5078989;28;20461;-62
2022/11/29 09:17:34;;;;;;;50.87;25.13;;;8.10;99.90;;;;;;5060511;28;20466;-61
2022/11/29 09:20:02;;;;;;;51.47;27.00;;;8.10;99.90;;;;;;5059721;28;20457;-62
2022/11/29 09:22:32;;;;;;;49.90;25.30;;;8.20;99.90;;;;;;5069733;28;20522;-62
2022/11/29 09:25:04;;;;;;;51.43;25.40;;;8.30;99.90;;;;;;5077945;28;20440;-61
2022/11/29 09:27:32;;;;;;;50.50;26.07;;;8.40;99.90;;;;;;5078667;28;20472;-62
2022/11/29 09:30:01;;;;;;;48.07;26.40;;;8.30;99.90;;;;;;5078098;28;20495;-62
2022/11/29 09:32:29;;;;;;;46.47;23.50;;;8.20;99.90;;;;;;5071586;28;20445;-62
2022/11/29 09:34:57;;;;;;;41.23;23.73;;;8.20;99.90;;;;;;5058882;28;20458;-62
2022/11/29 09:37:24;;;;;;;43.87;24.10;;;8.30;99.90;;;;;;5060195;28;20524;-62
2022/11/29 09:39:51;;;;;;;41.43;23.13;;;8.30;99.90;;;;;;5078757;28;20472;-62
2022/11/29 09:42:37;;;;;;;47.33;25.70;;;8.50;99.90;;;;;;5078746;28;20770;-62
2022/11/29 09:45:09;;;;;;;44.43;24.97;;;8.70;99.90;;;;;;5079866;28;20468;-62
2022/11/29 09:47:57;;;;;;;44.40;22.97;;;8.50;99.90;;;;;;5074805;28;20506;-62
2022/11/29 09:50:31;;;;;;;41.33;20.97;;;8.50;99.90;;;;;;5073144;28;20489;-60
2022/11/29 09:53:16;;;;;;;44.23;25.40;;;8.70;99.90;;;;;;5076212;28;20473;-61
2022/11/29 09:56:06;;;;;;;44.83;23.63;;;8.70;99.90;;;;;;5077698;28;20457;-62
2022/11/29 09:58:42;;;;;;;41.37;24.90;;;8.60;99.90;;;;;;5057889;28;20489;-62
2022/11/29 10:01:18;;;;;;;51.50;25.83;;;8.60;99.90;;;;;;5060137;28;20721;-61
2022/11/29 10:03:51;;;;;;;40.10;22.60;;;8.70;99.90;;;;;;5057593;28;20475;-60
2022/11/29 10:06:24;;;;;;;36.33;22.33;;;8.70;99.90;;;;;;5059208;28;20466;-62
2022/11/29 10:09:01;;;;;;;40.33;22.80;;;8.70;99.90;;;;;;5079105;28;20457;-62
2022/11/29 10:11:34;;;;;;;38.60;21.70;;;8.60;99.90;;;;;;5076886;28;20507;-61
2022/11/29 10:14:11;;;;;;;38.70;24.27;;;8.70;99.90;;;;;;5078644;28;20758;-62
2022/11/29 10:16:45;;;;;;;37.70;22.00;;;8.60;99.90;;;;;;5085241;28;20530;-62
2022/11/29 10:19:20;;;;;;;43.40;23.77;;;8.60;99.90;;;;;;5086254;28;20452;-61
2022/11/29 10:22:00;;;;;;;32.10;19.33;;;8.50;99.90;;;;;;5081426;28;20467;-61
2022/11/29 10:24:30;;;;;;;35.10;21.30;;;8.40;99.90;;;;;;5078468;28;20538;-61
2022/11/29 10:26:58;;;;;;;34.90;20.23;;;8.30;99.90;;;;;;5078634;28;20473;-60
2022/11/29 10:29:26;;;;;;;39.00;22.20;;;8.30;99.90;;;;;;5077042;28;20588;-59
2022/11/29 10:31:55;;;;;;;33.40;20.17;;;8.30;99.90;;;;;;5066678;28;20437;-55
2022/11/29 10:34:26;;;;;;;36.90;21.70;;;8.20;99.90;;;;;;5057792;28;20466;-60
2022/11/29 10:36:58;;;;;;;34.23;21.03;;;8.30;99.90;;;;;;5058855;28;20560;-61
2022/11/29 10:39:41;;;;;;;38.67;22.30;;;8.40;99.90;;;;;;5058096;28;20459;-60
2022/11/29 10:44:59;;;;;;;43.53;21.87;;;8.20;99.90;;;;;;5077843;28;20440;-61
2022/11/29 10:47:26;;;;;;;39.60;23.27;;;8.20;99.90;;;;;;5061010;28;20760;-62
2022/11/29 10:49:54;;;;;;;36.63;24.13;;;8.20;99.90;;;;;;5057890;28;20490;-62
2022/11/29 10:52:22;;;;;;;49.97;25.60;;;8.40;99.90;;;;;;5063553;28;20472;-62
2022/11/29 10:54:52;;;;;;;57.33;24.93;;;8.50;99.90;;;;;;5077228;28;20441;-62
2022/11/29 10:57:21;;;;;;;47.77;25.07;;;8.40;99.90;;;;;;5078129;28;20462;-62
2022/11/29 11:00:02;;;;;;;36.47;23.60;;;8.50;99.90;;;;;;5077459;28;20463;-63
2022/11/29 11:02:31;;;;;;;37.27;22.20;;;8.50;99.90;;;;;;5073528;28;20482;-62
2022/11/29 11:05:00;;;;;;;35.43;22.20;;;8.40;99.90;;;;;;5057235;28;20539;-63
2022/11/29 11:07:31;;;;;;;40.37;23.13;;;8.40;99.90;;;;;;5057036;28;20463;-63
2022/11/29 11:10:07;;;;;;;36.30;20.97;;;8.60;99.90;;;;;;5057611;28;20504;-62
2022/11/29 11:12:35;;;;;;;38.63;21.40;;;8.60;99.90;;;;;;5058245;28;20501;-63
2022/11/29 11:15:28;;;;;;;38.13;20.87;;;8.60;99.90;;;;;;5076031;28;20465;-63
2022/11/29 11:18:08;;;;;;;33.90;21.67;;;8.60;99.90;;;;;;5076635;28;20462;-63
2022/11/29 11:20:39;;;;;;;46.73;25.00;;;8.40;99.90;;;;;;5077335;28;20475;-63
2022/11/29 11:23:21;;;;;;;40.90;23.30;;;8.40;99.90;;;;;;5076452;28;20879;-63
2022/11/29 11:25:48;;;;;;;47.37;24.87;;;8.30;99.90;;;;;;5076459;28;20846;-63
2022/11/29 11:28:28;;;;;;;40.73;21.97;;;8.20;99.90;;;;;;5075368;28;20472;-63
2022/11/29 11:31:04;;;;;;;40.73;22.00;;;8.20;99.90;;;;;;5060439;28;20467;-63
2022/11/29 11:33:33;;;;;;;39.80;21.43;;;8.20;99.90;;;;;;5056094;28;20876;-63
2022/11/29 11:36:08;;;;;;;38.73;21.90;;;8.30;99.90;;;;;;5077205;28;20938;-63
2022/11/29 11:38:36;;;;;;;34.60;19.17;;;8.20;99.90;;;;;;5076389;28;20507;-63
2022/11/29 11:42:35;;;;;;;39.20;22.53;;;8.30;99.90;;;;;;5096218;28;20461;-63
2022/11/29 11:44:48;;;;;;;34.30;22.43;;;8.20;99.90;;;;;;5092026;28;20552;-63
2022/11/29 11:47:19;;;;;;;38.30;21.10;;;8.20;99.90;;;;;;5078433;28;20428;-63
2022/11/29 11:49:49;;;;;;;45.47;23.80;;;8.20;99.90;;;;;;5064064;28;20496;-63
2022/11/29 11:52:22;;;;;;;38.70;21.53;;;8.20;99.90;;;;;;5056988;28;20469;-63
2022/11/29 11:54:54;;;;;;;35.73;20.60;;;8.20;99.90;;;;;;5060724;28;20483;-63
2022/11/29 11:57:26;;;;;;;38.40;21.30;;;8.20;99.90;;;;;;5075712;28;20961;-63
2022/11/29 11:59:55;;;;;;;40.13;22.97;;;8.20;99.90;;;;;;5056910;28;20458;-63
2022/11/29 12:02:29;;;;;;;47.73;24.37;;;8.20;99.90;;;;;;5054714;28;20790;-63
2022/11/29 12:05:00;;;;;;;55.47;27.53;;;8.20;99.90;;;;;;5066143;28;20476;-63
2022/11/29 12:07:34;;;;;;;55.57;25.93;;;8.20;99.90;;;;;;5085238;28;20464;-63
2022/11/29 12:10:06;;;;;;;46.47;23.97;;;8.10;99.90;;;;;;5089207;28;20484;-62
2022/11/29 12:12:36;;;;;;;49.73;25.70;;;8.10;99.90;;;;;;5086603;28;20424;-63
2022/11/29 12:15:06;;;;;;;51.60;26.43;;;8.10;99.90;;;;;;5088095;28;20427;-63
2022/11/29 12:17:40;;;;;;;49.77;26.80;;;8.10;99.90;;;;;;5084103;28;20617;-63
2022/11/29 12:20:22;;;;;;;62.00;28.63;;;8.10;99.90;;;;;;5087153;28;20457;-63
2022/11/29 12:23:23;;;;;;;59.03;28.70;;;8.10;99.90;;;;;;5086421;28;20792;-63
2022/11/29 12:25:56;;;;;;;59.90;28.07;;;8.30;99.90;;;;;;5058816;28;20441;-63
2022/11/29 12:28:28;;;;;;;56.87;27.90;;;8.30;99.90;;;;;;5065216;28;20515;-63
2022/11/29 12:31:04;;;;;;;56.73;28.20;;;8.30;99.90;;;;;;5079199;28;20526;-63
2022/11/29 12:33:42;;;;;;;71.73;34.10;;;8.40;99.90;;;;;;5072747;28;20480;-63
2022/11/29 12:36:20;;;;;;;65.10;31.93;;;8.40;99.90;;;;;;5080056;28;20450;-63
2022/11/29 12:39:22;;;;;;;68.53;32.40;;;8.20;99.90;;;;;;5080572;28;20443;-63
2022/11/29 12:42:01;;;;;;;66.20;30.60;;;8.30;99.90;;;;;;4997475;28;20579;-63
2022/11/29 12:44:51;;;;;;;62.07;31.77;;;8.40;99.90;;;;;;5070300;28;20677;-63
2022/11/29 12:47:31;;;;;;;63.07;31.20;;;8.50;99.90;;;;;;5089514;28;20822;-63
2022/11/29 12:50:11;;;;;;;71.70;31.80;;;8.40;99.90;;;;;;5093003;28;20556;-63
2022/11/29 12:52:56;;;;;;;66.90;30.80;;;8.30;99.90;;;;;;5094516;28;20468;-63
2022/11/29 12:55:26;;;;;;;57.10;28.10;;;8.40;99.90;;;;;;5088007;28;20778;-63
2022/11/29 12:58:02;;;;;;;65.10;27.20;;;8.40;99.90;;;;;;5084353;28;20461;-63
2022/11/29 13:00:36;;;;;;;52.70;26.43;;;8.40;99.90;;;;;;5080591;28;20442;-63
2022/11/29 13:03:15;;;;;;;55.00;28.63;;;8.30;99.90;;;;;;5094988;28;20548;-63
2022/11/29 13:05:55;;;;;;;58.20;26.00;;;8.30;99.90;;;;;;5085120;28;20521;-63
2022/11/29 13:08:54;;;;;;;55.23;24.63;;;8.20;99.90;;;;;;5087676;28;20432;-63
2022/11/29 13:11:25;;;;;;;56.00;25.30;;;8.20;99.90;;;;;;5082052;28;20493;-63
2022/11/29 13:13:58;;;;;;;52.50;25.13;;;8.30;99.90;;;;;;5085309;28;20783;-63
2022/11/29 13:16:47;;;;;;;52.93;26.10;;;8.30;99.90;;;;;;5086830;28;20459;-63
2022/11/29 13:19:23;;;;;;;59.03;27.20;;;8.30;99.90;;;;;;5088680;28;20458;-63
2022/11/29 13:22:03;;;;;;;47.67;24.27;;;8.40;99.90;;;;;;5086556;28;20454;-63
2022/11/29 13:24:47;;;;;;;57.07;24.73;;;8.40;99.90;;;;;;5085579;28;20461;-63
2022/11/29 13:27:18;;;;;;;48.70;23.87;;;8.30;99.90;;;;;;5089555;28;20455;-63
2022/11/29 13:29:49;;;;;;;56.03;24.60;;;8.30;99.90;;;;;;5082222;28;20453;-63
2022/11/29 13:32:34;;;;;;;57.57;25.00;;;8.20;99.90;;;;;;5089385;28;20889;-63
2022/11/29 13:35:07;;;;;;;53.20;24.93;;;8.30;99.90;;;;;;5085600;28;20465;-63
2022/11/29 13:37:43;;;;;;;46.80;23.83;;;8.30;99.90;;;;;;5087267;28;20558;-63